Time;durP1;ratioP1;P1;durP2;ratioP2;P2;SDS_P1;SDS_P2;PMS_P1;PMS_P2;Temp;Humidity;BMP_temperature;BMP_pressure;BME280_temperature;BME280_humidity;BME280_pressure;Samples;Min_cycle;Max_cycle;Signal;HPM_P1;HPM_P2
2023/09/22 00:01:56;;;;;;;8.40;7.60;;;;;;;12.72;100.00;99687.50;5048454;28;20037;-72
2023/09/22 00:04:22;;;;;;;8.50;7.05;;;;;;;12.69;100.00;99680.69;5052092;28;20045;-72
2023/09/22 00:06:47;;;;;;;9.23;7.15;;;;;;;12.62;100.00;99679.34;5052457;28;20028;-72
2023/09/22 00:09:13;;;;;;;7.55;6.78;;;;;;;12.62;100.00;99682.03;5052104;28;20036;-71
2023/09/22 00:11:38;;;;;;;8.15;7.05;;;;;;;12.60;100.00;99685.03;5052329;28;20025;-71
2023/09/22 00:14:04;;;;;;;7.95;6.65;;;;;;;12.57;100.00;99680.94;5034205;28;20025;-73
2023/09/22 00:16:30;;;;;;;9.15;7.30;;;;;;;12.57;100.00;99685.56;5055475;28;20033;-72
2023/09/22 00:18:55;;;;;;;6.90;4.28;;;;;;;12.67;100.00;99682.06;5052053;28;20380;-73
2023/09/22 00:21:20;;;;;;;8.05;6.55;;;;;;;12.55;100.00;99687.75;5034351;28;20037;-71
2023/09/22 00:23:46;;;;;;;8.82;6.90;;;;;;;12.55;100.00;99679.59;5052467;28;20029;-72
2023/09/22 00:26:11;;;;;;;10.75;6.95;;;;;;;12.51;100.00;99676.59;5052255;28;20090;-73
2023/09/22 00:28:36;;;;;;;7.82;6.65;;;;;;;12.46;100.00;99684.72;5051939;28;20048;-72
2023/09/22 00:31:02;;;;;;;7.63;6.60;;;;;;;12.46;100.00;99692.06;5052027;28;20138;-74
2023/09/22 00:33:28;;;;;;;7.50;6.68;;;;;;;12.39;100.00;99689.56;5035067;28;20036;-73
2023/09/22 00:35:53;;;;;;;7.45;6.20;;;;;;;12.36;100.00;99693.63;5065080;28;20037;-72
2023/09/22 00:38:19;;;;;;;10.68;6.88;;;;;;;12.32;100.00;99697.13;5034136;28;20037;-73
2023/09/22 00:40:44;;;;;;;9.70;7.15;;;;;;;12.30;100.00;99697.41;5052347;28;20461;-73
2023/09/22 00:43:11;;;;;;;8.38;6.60;;;;;;;12.29;100.00;99692.22;5033946;28;20087;-73
2023/09/22 00:45:42;;;;;;;9.75;7.70;;;;;;;12.23;100.00;99689.50;5052051;28;20037;-73
2023/09/22 00:48:08;;;;;;;8.45;4.43;;;;;;;12.41;100.00;99690.13;5051236;28;20032;-73
2023/09/22 00:50:34;;;;;;;11.00;7.60;;;;;;;12.24;100.00;99674.03;5051197;28;20064;-72
2023/09/22 00:53:00;;;;;;;12.13;8.18;;;;;;;12.23;100.00;99669.72;5052523;28;20071;-71
2023/09/22 00:55:25;;;;;;;12.90;8.57;;;;;;;12.24;100.00;99671.34;5055678;28;20076;-72
2023/09/22 00:57:51;;;;;;;13.07;8.75;;;;;;;12.19;100.00;99661.28;5054358;28;20029;-72
2023/09/22 01:00:17;;;;;;;8.68;4.80;;;;;;;12.34;100.00;99673.28;5053652;28;20060;-72
2023/09/22 01:02:43;;;;;;;13.02;9.30;;;;;;;12.19;100.00;99664.00;5043206;28;20037;-72
2023/09/22 01:05:08;;;;;;;14.50;9.93;;;;;;;12.16;100.00;99669.94;5054838;28;20527;-72
2023/09/22 01:07:34;;;;;;;13.55;9.10;;;;;;;12.24;100.00;99687.59;5055240;28;20548;-72
2023/09/22 01:10:09;;;;;;;12.18;9.05;;;;;;;12.20;100.00;99687.31;5055283;28;20029;-73
2023/09/22 01:12:35;;;;;;;14.68;9.60;;;;;;;12.17;100.00;99670.78;5055381;28;20063;-73
2023/09/22 01:15:00;;;;;;;12.15;9.25;;;;;;;12.19;100.00;99669.41;5054791;28;20025;-73
2023/09/22 01:17:26;;;;;;;14.13;9.20;;;;;;;12.23;100.00;99675.94;5037468;28;20032;-73
2023/09/22 01:19:51;;;;;;;14.18;9.88;;;;;;;12.19;100.00;99676.75;5055090;28;20083;-72
2023/09/22 01:22:16;;;;;;;14.27;9.38;;;;;;;12.20;100.00;99673.78;5055327;28;20025;-73
2023/09/22 01:24:42;;;;;;;12.90;9.45;;;;;;;12.23;100.00;99673.25;5054695;28;20037;-72
2023/09/22 01:27:08;;;;;;;13.30;9.23;;;;;;;12.16;100.00;99669.94;5036984;28;20029;-72
2023/09/22 01:29:33;;;;;;;11.57;4.95;;;;;;;12.40;100.00;99669.50;5055109;28;20033;-73
2023/09/22 01:32:00;;;;;;;12.88;9.68;;;;;;;12.33;100.00;99663.50;5054857;28;20032;-73
2023/09/22 01:34:26;;;;;;;14.43;9.80;;;;;;;12.29;100.00;99657.81;5054990;28;20029;-72
2023/09/22 01:36:51;;;;;;;13.02;8.82;;;;;;;12.25;100.00;99655.91;5055269;28;20032;-72
2023/09/22 01:39:17;;;;;;;14.32;9.68;;;;;;;12.29;100.00;99654.25;5054139;28;20056;-71
2023/09/22 01:41:43;;;;;;;15.40;9.25;;;;;;;12.36;100.00;99662.97;5054895;28;20033;-72
2023/09/22 01:44:09;;;;;;;13.63;9.60;;;;;;;12.31;100.00;99657.53;5068088;28;20119;-73
2023/09/22 01:46:35;;;;;;;12.82;9.65;;;;;;;12.28;100.00;99661.59;5074802;28;20028;-71
2023/09/22 01:49:00;;;;;;;14.90;10.32;;;;;;;12.35;100.00;99655.91;5074504;28;20054;-73
2023/09/22 01:51:25;;;;;;;15.18;10.25;;;;;;;12.37;100.00;99665.41;5066619;28;20025;-72
2023/09/22 01:53:52;;;;;;;16.02;10.07;;;;;;;12.37;100.00;99673.56;5054179;28;20460;-72
2023/09/22 01:56:17;;;;;;;12.80;9.98;;;;;;;12.32;100.00;99670.84;5043471;28;20028;-72
2023/09/22 01:58:42;;;;;;;14.45;10.13;;;;;;;12.34;100.00;99660.53;5056591;28;20430;-72
2023/09/22 02:01:08;;;;;;;13.38;9.45;;;;;;;12.39;100.00;99663.28;5072045;28;20028;-72
2023/09/22 02:03:33;;;;;;;12.43;10.30;;;;;;;12.40;100.00;99667.59;5056391;28;20098;-72
2023/09/22 02:05:59;;;;;;;15.65;10.32;;;;;;;12.39;100.00;99660.56;5074483;28;20480;-72
2023/09/22 02:08:25;;;;;;;14.13;9.48;;;;;;;12.39;100.00;99662.44;5074474;28;20479;-72
2023/09/22 02:10:50;;;;;;;14.52;9.65;;;;;;;12.40;100.00;99658.66;5071821;28;20040;-71
2023/09/22 02:13:15;;;;;;;16.15;10.00;;;;;;;12.41;100.00;99663.00;5074043;28;20082;-72
2023/09/22 02:15:40;;;;;;;17.35;10.32;;;;;;;12.46;100.00;99662.22;5053837;28;20033;-73
2023/09/22 02:18:06;;;;;;;12.55;9.68;;;;;;;12.38;100.00;99671.69;5054027;28;20112;-72
2023/09/22 02:20:32;;;;;;;13.80;10.05;;;;;;;12.49;100.00;99662.47;5036229;28;20033;-72
2023/09/22 02:22:58;;;;;;;12.80;9.90;;;;;;;12.43;100.00;99671.69;5036178;28;20025;-72
2023/09/22 02:25:24;;;;;;;15.50;9.98;;;;;;;12.38;100.00;99672.47;5072334;28;20033;-72
2023/09/22 02:27:53;;;;;;;18.90;10.27;;;;;;;12.41;100.00;99676.56;5073998;28;20032;-72
2023/09/22 02:30:19;;;;;;;13.82;10.30;;;;;;;12.45;100.00;99674.94;5055284;28;20033;-73
2023/09/22 02:32:48;;;;;;;13.60;9.52;;;;;;;12.44;100.00;99673.31;5053674;28;20479;-72
2023/09/22 02:35:14;;;;;;;14.48;9.80;;;;;;;12.43;100.00;99668.97;5053591;28;20114;-72
2023/09/22 02:37:40;;;;;;;12.10;9.40;;;;;;;12.50;100.00;99663.28;5053339;28;20152;-71
2023/09/22 02:40:06;;;;;;;15.23;9.32;;;;;;;12.50;100.00;99666.84;5053530;28;20107;-72
2023/09/22 02:42:32;;;;;;;12.85;9.23;;;;;;;12.48;100.00;99665.47;5035793;28;20025;-72
2023/09/22 02:44:57;;;;;;;14.73;9.40;;;;;;;12.50;100.00;99663.28;5068304;28;20028;-73
2023/09/22 02:47:25;;;;;;;14.00;10.35;;;;;;;12.44;100.00;99654.34;5055369;28;20449;-72
2023/09/22 02:49:50;;;;;;;15.70;9.82;;;;;;;12.44;100.00;99664.34;5073542;28;20028;-72
2023/09/22 02:52:15;;;;;;;13.30;9.48;;;;;;;12.52;100.00;99674.72;5055383;28;20119;-72
2023/09/22 02:54:41;;;;;;;14.52;9.00;;;;;;;12.45;100.00;99666.78;5073187;28;20434;-72
2023/09/22 02:57:06;;;;;;;16.60;9.88;;;;;;;12.52;100.00;99672.00;5055325;28;20123;-72
2023/09/22 02:59:32;;;;;;;9.57;4.90;;;;;;;12.67;100.00;99663.06;5055514;28;20108;-72
2023/09/22 03:01:57;;;;;;;12.77;9.48;;;;;;;12.46;100.00;99663.00;5050156;28;20156;-72
2023/09/22 03:04:23;;;;;;;13.77;9.13;;;;;;;12.48;100.00;99670.88;5034802;28;20127;-72
2023/09/22 03:06:48;;;;;;;13.63;8.80;;;;;;;12.40;100.00;99664.06;5053073;28;20059;-72
2023/09/22 03:09:15;;;;;;;12.55;8.55;;;;;;;12.53;100.00;99666.28;5053040;28;20029;-72
2023/09/22 03:11:40;;;;;;;11.60;8.93;;;;;;;12.48;100.00;99666.25;5053171;28;20021;-73
2023/09/22 03:14:06;;;;;;;14.18;9.02;;;;;;;12.41;100.00;99676.56;5052886;28;20024;-72
2023/09/22 03:16:31;;;;;;;11.32;8.40;;;;;;;12.49;100.00;99675.25;5052644;28;20059;-73
2023/09/22 03:18:57;;;;;;;15.50;8.48;;;;;;;12.41;100.00;99676.56;5052641;28;20029;-72
2023/09/22 03:21:23;;;;;;;9.98;7.72;;;;;;;12.41;100.00;99682.00;5052295;28;20387;-72
2023/09/22 03:23:50;;;;;;;17.02;7.50;;;;;;;12.46;100.00;99682.00;5034793;28;20032;-72
2023/09/22 03:26:15;;;;;;;12.75;8.18;;;;;;;12.46;100.00;99679.28;5052440;28;20531;-72
2023/09/22 03:28:41;;;;;;;11.10;7.30;;;;;;;12.45;100.00;99674.94;5051539;28;20029;-70
2023/09/22 03:31:06;;;;;;;10.98;7.38;;;;;;;12.53;100.00;99679.88;5052414;28;20080;-72
2023/09/22 03:33:32;;;;;;;11.05;7.18;;;;;;;12.55;100.00;99674.16;5052187;28;20041;-72
2023/09/22 03:35:57;;;;;;;10.80;7.40;;;;;;;12.54;100.00;99681.47;5052495;28;20021;-72
2023/09/22 03:38:22;;;;;;;10.30;6.57;;;;;;;12.54;100.00;99681.47;5052437;28;20033;-72
2023/09/22 03:40:48;;;;;;;8.77;6.15;;;;;;;12.55;100.00;99687.75;5052399;28;20392;-72
2023/09/22 03:43:13;;;;;;;8.05;5.90;;;;;;;12.58;100.00;99687.19;5070284;28;20035;-72
2023/09/22 03:45:39;;;;;;;10.48;6.22;;;;;;;12.53;100.00;99684.44;5072649;28;20093;-72
2023/09/22 03:48:05;;;;;;;9.95;6.05;;;;;;;12.50;100.00;99680.41;5053496;28;20468;-72
2023/09/22 03:50:31;;;;;;;8.80;5.40;;;;;;;12.49;100.00;99677.94;5052504;28;20036;-72
2023/09/22 03:52:57;;;;;;;10.77;5.50;;;;;;;12.49;100.00;99680.66;5052518;28;20039;-72
2023/09/22 03:55:22;;;;;;;7.13;4.97;;;;;;;12.46;100.00;99673.88;5052204;28;20028;-72
2023/09/22 03:57:48;;;;;;;10.70;5.25;;;;;;;12.48;100.00;99682.53;5052232;28;20400;-72
2023/09/22 04:00:24;;;;;;;8.13;4.60;;;;;;;12.50;100.00;99691.25;5052250;28;20029;-72
2023/09/22 04:02:50;;;;;;;9.52;5.00;;;;;;;12.50;100.00;99685.81;5068181;28;20111;-71
2023/09/22 04:05:15;;;;;;;10.50;4.50;;;;;;;12.50;100.00;99685.81;5071970;28;20162;-71
2023/09/22 04:07:40;;;;;;;4.50;2.58;;;;;;;12.64;100.00;99688.84;5072406;28;20044;-72
2023/09/22 04:10:08;;;;;;;8.05;4.50;;;;;;;12.55;100.00;99685.81;5072171;28;20464;-72
2023/09/22 04:12:35;;;;;;;8.68;4.38;;;;;;;12.58;100.00;99685.28;5054383;28;20426;-72
2023/09/22 04:15:08;;;;;;;6.60;4.00;;;;;;;12.55;100.00;99687.75;5072301;28;20472;-72
2023/09/22 04:17:34;;;;;;;6.82;4.13;;;;;;;12.55;100.00;99679.59;5071192;28;20112;-72
2023/09/22 04:20:07;;;;;;;7.80;4.07;;;;;;;12.53;100.00;99689.88;5072340;28;20032;-71
2023/09/22 04:22:33;;;;;;;6.55;3.33;;;;;;;12.54;100.00;99692.31;5052406;28;20090;-72
2023/09/22 04:25:07;;;;;;;6.85;3.45;;;;;;;12.54;100.00;99697.75;5053763;28;20041;-71
2023/09/22 04:27:34;;;;;;;7.03;3.45;;;;;;;12.51;100.00;99697.47;5072548;28;20033;-72
2023/09/22 04:30:03;;;;;;;7.45;3.83;;;;;;;12.52;100.00;99699.13;5076271;28;20112;-72
2023/09/22 04:32:33;;;;;;;7.00;3.65;;;;;;;12.47;100.00;99699.09;5052942;28;20029;-72
2023/09/22 04:35:02;;;;;;;6.20;3.30;;;;;;;12.50;100.00;99701.28;5054834;28;20140;-72
2023/09/22 04:37:27;;;;;;;6.35;3.65;;;;;;;12.40;100.00;99700.16;5055500;28;20028;-71
2023/09/22 04:39:54;;;;;;;5.90;3.60;;;;;;;12.47;100.00;99701.81;5055759;28;20079;-73
2023/09/22 04:42:19;;;;;;;9.43;3.03;;;;;;;12.45;100.00;99696.63;5037778;28;20123;-73
2023/09/22 04:44:45;;;;;;;6.88;3.15;;;;;;;12.42;100.00;99697.19;5054248;28;20128;-73
2023/09/22 04:47:10;;;;;;;6.47;2.95;;;;;;;12.36;100.00;99699.03;5055217;28;20037;-72
2023/09/22 04:49:35;;;;;;;10.23;3.42;;;;;;;12.38;100.00;99696.91;5055940;28;20025;-71
2023/09/22 04:52:02;;;;;;;6.95;3.03;;;;;;;12.38;100.00;99704.22;5055800;28;20060;-76
2023/09/22 04:54:29;;;;;;;10.90;3.30;;;;;;;12.31;100.00;99700.94;5037478;28;20033;-71
2023/09/22 04:56:54;;;;;;;8.27;3.88;;;;;;;12.34;100.00;99701.22;5055686;28;20057;-72
2023/09/22 04:59:20;;;;;;;9.05;3.80;;;;;;;12.33;100.00;99706.91;5055442;28;20063;-70
2023/09/22 05:01:45;;;;;;;11.18;3.05;;;;;;;12.31;100.00;99698.22;5035097;28;20064;-70
2023/09/22 05:04:10;;;;;;;7.35;3.10;;;;;;;12.33;100.00;99704.19;5054409;28;20080;-71
2023/09/22 05:06:36;;;;;;;3.78;3.10;;;;;;;12.31;100.00;99704.47;5037717;28;20424;-70
2023/09/22 05:09:02;;;;;;;9.15;3.00;;;;;;;12.31;100.00;99706.38;5054607;28;20516;-70
2023/09/22 05:11:27;;;;;;;7.60;3.30;;;;;;;12.26;100.00;99714.47;5055243;28;20104;-70
2023/09/22 05:13:53;;;;;;;6.10;3.00;;;;;;;12.26;100.00;99717.19;5055341;28;20151;-70
2023/09/22 05:16:20;;;;;;;6.13;2.97;;;;;;;12.23;100.00;99727.47;5055194;28;20040;-70
2023/09/22 05:18:45;;;;;;;6.95;2.90;;;;;;;12.22;100.00;99722.31;5055369;28;20509;-70
2023/09/22 05:21:10;;;;;;;7.25;1.73;;;;;;;12.40;100.00;99726.47;5055270;28;20025;-70
2023/09/22 05:23:36;;;;;;;8.45;3.00;;;;;;;12.32;100.00;99729.69;5054715;28;20052;-71
2023/09/22 05:26:06;;;;;;;4.90;2.63;;;;;;;12.20;100.00;99728.00;5037364;28;20085;-69
2023/09/22 05:28:32;;;;;;;5.80;3.00;;;;;;;12.25;100.00;99737.25;5054699;28;20040;-69
2023/09/22 05:30:58;;;;;;;6.63;2.85;;;;;;;12.27;100.00;99737.81;5055488;28;20457;-70
2023/09/22 05:33:24;;;;;;;5.63;3.00;;;;;;;12.26;100.00;99736.16;5054274;28;20108;-70
2023/09/22 05:35:49;;;;;;;5.05;3.05;;;;;;;12.22;100.00;99735.88;5054930;28;20044;-70
2023/09/22 05:38:15;;;;;;;6.20;2.63;;;;;;;12.22;100.00;99733.16;5070381;28;20020;-70
2023/09/22 05:40:40;;;;;;;5.97;3.00;;;;;;;12.22;100.00;99739.41;5070684;28;20784;-69
2023/09/22 05:43:05;;;;;;;7.75;3.10;;;;;;;12.20;100.00;99751.63;5036679;28;20060;-70
2023/09/22 05:45:31;;;;;;;7.70;2.70;;;;;;;12.20;100.00;99754.31;5054599;28;20112;-71
2023/09/22 05:47:57;;;;;;;9.50;3.20;;;;;;;12.18;100.00;99760.00;5054790;28;20047;-70
2023/09/22 05:50:23;;;;;;;7.20;2.80;;;;;;;12.19;100.00;99758.91;5054483;28;20025;-71
2023/09/22 05:52:49;;;;;;;7.20;2.90;;;;;;;12.19;100.00;99750.78;5054255;28;20040;-71
2023/09/22 05:55:15;;;;;;;6.43;3.08;;;;;;;12.19;100.00;99752.69;5054197;28;20060;-71
2023/09/22 05:57:40;;;;;;;6.15;2.83;;;;;;;12.19;100.00;99745.34;5036274;28;20119;-71
2023/09/22 06:00:17;;;;;;;7.75;2.88;;;;;;;12.22;100.00;99750.25;5072063;28;20029;-71
2023/09/22 06:02:47;;;;;;;7.65;3.10;;;;;;;12.19;100.00;99772.47;5072605;28;20028;-71
2023/09/22 06:05:13;;;;;;;7.00;3.03;;;;;;;12.25;100.00;99769.81;5074497;28;20041;-71
2023/09/22 06:07:38;;;;;;;6.03;3.03;;;;;;;12.28;100.00;99770.09;5074495;28;20461;-71
2023/09/22 06:10:05;;;;;;;6.22;2.72;;;;;;;12.29;100.00;99781.75;5074102;28;20453;-70
2023/09/22 06:12:31;;;;;;;7.05;2.00;;;;;;;12.42;100.00;99786.72;5073591;28;20515;-70
2023/09/22 06:14:59;;;;;;;7.00;2.53;;;;;;;12.29;100.00;99781.75;5053950;28;20071;-70
2023/09/22 06:17:25;;;;;;;7.70;2.90;;;;;;;12.25;100.00;99780.66;5054004;28;20056;-70
2023/09/22 06:19:51;;;;;;;6.68;2.92;;;;;;;12.34;100.00;99781.78;5054039;28;20029;-70
2023/09/22 06:22:16;;;;;;;4.70;2.30;;;;;;;12.38;100.00;99778.28;5053902;28;20358;-69
2023/09/22 06:24:42;;;;;;;5.78;2.85;;;;;;;12.37;100.00;99784.78;5053800;28;20029;-70
2023/09/22 06:27:07;;;;;;;6.50;2.80;;;;;;;12.33;100.00;99791.00;5054073;28;20575;-70
2023/09/22 06:29:32;;;;;;;3.63;2.15;;;;;;;12.48;100.00;99791.06;5053206;28;20449;-70
2023/09/22 06:31:57;;;;;;;4.65;2.53;;;;;;;12.44;100.00;99800.00;5053980;28;20025;-70
2023/09/22 06:34:23;;;;;;;3.97;2.22;;;;;;;12.43;100.00;99801.91;5053611;28;20532;-70
2023/09/22 06:36:48;;;;;;;5.07;2.05;;;;;;;12.57;100.00;99804.97;5053374;28;20037;-69
2023/09/22 06:39:13;;;;;;;6.20;2.30;;;;;;;12.48;100.00;99798.41;5053432;28;20581;-70
2023/09/22 06:41:39;;;;;;;5.72;2.38;;;;;;;12.53;100.00;99799.25;5053514;28;20033;-70
2023/09/22 06:44:04;;;;;;;6.40;2.60;;;;;;;12.54;100.00;99794.63;5053241;28;20033;-69
2023/09/22 06:46:35;;;;;;;8.43;2.28;;;;;;;12.57;100.00;99808.50;5035499;28;20033;-70
2023/09/22 06:49:01;;;;;;;7.85;2.50;;;;;;;12.59;100.00;99811.78;5053652;28;20119;-72
2023/09/22 06:51:27;;;;;;;4.80;2.35;;;;;;;12.62;100.00;99815.03;5052142;28;20057;-71
2023/09/22 06:53:53;;;;;;;5.28;2.53;;;;;;;12.60;100.00;99818.00;5066883;28;20028;-71
2023/09/22 06:56:18;;;;;;;5.75;2.10;;;;;;;12.66;100.00;99818.84;5072516;28;20029;-70
2023/09/22 06:58:43;;;;;;;5.30;2.28;;;;;;;12.69;100.00;99818.31;5053084;28;20036;-71
2023/09/22 07:01:10;;;;;;;4.00;2.28;;;;;;;12.69;100.00;99824.56;5061428;28;20036;-72
2023/09/22 07:03:37;;;;;;;7.60;2.58;;;;;;;12.72;100.00;99828.66;5072549;28;20086;-71
2023/09/22 07:06:03;;;;;;;7.50;2.20;;;;;;;12.72;100.00;99828.66;5066534;28;20033;-71
2023/09/22 07:08:29;;;;;;;7.07;2.10;;;;;;;12.75;100.00;99831.66;5052462;28;20041;-70
2023/09/22 07:11:03;;;;;;;4.70;2.20;;;;;;;12.77;100.00;99836.81;5052963;28;20392;-71
2023/09/22 07:13:29;;;;;;;4.90;1.85;;;;;;;12.78;100.00;99838.44;5034767;28;20404;-70
2023/09/22 07:15:55;;;;;;;4.97;2.00;;;;;;;12.80;100.00;99835.47;5053073;28;20461;-71
2023/09/22 07:18:21;;;;;;;5.25;1.77;;;;;;;12.84;100.00;99842.03;5052602;28;20033;-71
2023/09/22 07:20:47;;;;;;;3.58;1.70;;;;;;;12.83;100.00;99838.50;5052586;28;20116;-70
2023/09/22 07:23:12;;;;;;;3.58;1.95;;;;;;;12.84;100.00;99840.09;5062408;28;20063;-70
2023/09/22 07:25:38;;;;;;;3.83;1.67;;;;;;;12.83;100.00;99841.22;5055067;28;20589;-71
2023/09/22 07:28:04;;;;;;;3.25;1.63;;;;;;;12.90;100.00;99840.94;5072653;28;20029;-71
2023/09/22 07:30:29;;;;;;;5.43;1.98;;;;;;;12.92;100.00;99850.47;5072595;28;20056;-71
2023/09/22 07:32:55;;;;;;;4.18;1.67;;;;;;;12.99;100.00;99854.84;5072589;28;20104;-70
2023/09/22 07:35:21;;;;;;;3.75;1.80;;;;;;;13.01;100.00;99863.53;5072157;28;20364;-71
2023/09/22 07:37:46;;;;;;;4.38;1.65;;;;;;;13.05;100.00;99851.06;5062479;28;20029;-70
2023/09/22 07:40:12;;;;;;;3.50;1.80;;;;;;;13.09;100.00;99865.75;5059052;28;20025;-71
2023/09/22 07:42:41;;;;;;;4.28;1.60;;;;;;;13.08;100.00;99866.81;5061791;28;20024;-71
2023/09/22 07:45:08;;;;;;;4.43;1.55;;;;;;;13.10;100.00;99875.50;5072417;28;20032;-70
2023/09/22 07:47:34;;;;;;;3.88;1.77;;;;;;;13.13;100.00;99880.41;5072473;28;20107;-70
2023/09/22 07:50:00;;;;;;;3.58;1.30;;;;;;;13.16;100.00;99879.88;5072672;28;20044;-71
2023/09/22 07:52:26;;;;;;;5.80;1.30;;;;;;;13.19;100.00;99882.06;5072471;28;20028;-71
2023/09/22 07:54:52;;;;;;;3.47;1.40;;;;;;;13.19;100.00;99876.63;5072578;28;20523;-71
2023/09/22 07:57:17;;;;;;;2.75;1.40;;;;;;;13.23;100.00;99888.59;5066598;28;20100;-71
2023/09/22 07:59:43;;;;;;;2.58;1.35;;;;;;;13.24;100.00;99887.53;5060556;28;20112;-71
2023/09/22 08:02:08;;;;;;;2.55;1.27;;;;;;;13.32;100.00;99891.63;5049982;28;20281;-71
2023/09/22 08:04:34;;;;;;;3.90;1.40;;;;;;;13.33;100.00;99892.44;5051532;28;20053;-71
2023/09/22 08:06:59;;;;;;;4.95;1.60;;;;;;;13.36;100.00;99902.81;5034636;28;20037;-72
2023/09/22 08:09:25;;;;;;;2.67;1.35;;;;;;;13.37;100.00;99905.25;5052176;28;20029;-72
2023/09/22 08:11:51;;;;;;;2.88;1.05;;;;;;;13.41;100.00;99903.66;5052371;28;20036;-72
2023/09/22 08:14:17;;;;;;;3.47;1.17;;;;;;;13.49;100.00;99909.66;5051636;28;20058;-71
2023/09/22 08:16:42;;;;;;;2.88;1.40;;;;;;;13.58;100.00;99902.59;5052067;28;20033;-72
2023/09/22 08:19:11;;;;;;;3.60;1.10;;;;;;;13.59;100.00;99902.34;5052250;28;20028;-69
2023/09/22 08:21:40;;;;;;;7.28;1.42;;;;;;;13.63;100.00;99905.31;5051800;28;20393;-69
2023/09/22 08:24:07;;;;;;;3.92;1.20;;;;;;;13.68;100.00;99909.94;5052315;28;20068;-70
2023/09/22 08:26:33;;;;;;;2.25;1.00;;;;;;;13.73;100.00;99907.25;5052068;28;20086;-70
2023/09/22 08:29:00;;;;;;;3.55;1.00;;;;;;;13.78;100.00;99904.53;5053920;28;20043;-71
2023/09/22 08:31:26;;;;;;;4.32;1.00;;;;;;;13.89;100.00;99917.09;5034559;28;20116;-70
2023/09/22 08:33:52;;;;;;;3.60;1.00;;;;;;;13.94;100.00;99922.50;5052403;28;20033;-71
2023/09/22 08:36:17;;;;;;;4.93;1.30;;;;;;;13.91;100.00;99920.34;5064378;28;20600;-71
2023/09/22 08:38:43;;;;;;;3.50;0.90;;;;;;;13.93;100.00;99917.34;5051770;28;20033;-71
2023/09/22 08:41:08;;;;;;;3.42;1.13;;;;;;;14.00;100.00;99916.00;5044907;28;20111;-70
2023/09/22 08:43:35;;;;;;;2.55;1.05;;;;;;;14.09;100.00;99923.63;5051689;28;20025;-71
2023/09/22 08:46:01;;;;;;;3.42;1.13;;;;;;;14.17;100.00;99925.78;5054697;28;20643;-70
2023/09/22 08:48:27;;;;;;;2.63;0.90;;;;;;;14.27;100.00;99925.81;5071744;28;20107;-70
2023/09/22 08:50:53;;;;;;;2.05;1.23;;;;;;;14.15;100.00;99926.06;5072008;28;20043;-70
2023/09/22 08:53:19;;;;;;;3.88;1.10;;;;;;;14.10;100.00;99928.81;5071025;28;20460;-71
2023/09/22 08:55:44;;;;;;;2.55;1.00;;;;;;;14.10;100.00;99936.13;5053790;28;20364;-71
2023/09/22 08:58:10;;;;;;;4.43;1.10;;;;;;;14.09;100.00;99934.50;5066552;28;20029;-70
2023/09/22 09:00:35;;;;;;;2.30;1.10;;;;;;;14.14;100.00;99924.44;5031424;28;20025;-72
2023/09/22 09:03:09;;;;;;;2.15;0.85;;;;;;;14.17;100.00;99931.25;5051944;28;20093;-71
2023/09/22 09:05:36;;;;;;;4.70;1.00;;;;;;;14.09;100.00;99931.78;5053571;28;20041;-72
2023/09/22 09:08:13;;;;;;;2.50;1.20;;;;;;;14.12;100.00;99934.78;5071769;28;20123;-71
2023/09/22 09:10:40;;;;;;;2.40;1.05;;;;;;;14.12;100.00;99942.94;5071915;28;20036;-71
2023/09/22 09:13:07;;;;;;;2.92;1.10;;;;;;;14.06;100.00;99941.31;5071585;28;20107;-71
2023/09/22 09:15:47;;;;;;;3.20;1.10;;;;;;;14.06;100.00;99944.03;5073739;28;20590;-71
2023/09/22 09:18:18;;;;;;;2.63;1.10;;;;;;;14.10;100.00;99941.56;5068965;28;20107;-71
2023/09/22 09:20:45;;;;;;;2.08;0.75;;;;;;;14.17;100.00;99937.50;5054733;28;20358;-70
2023/09/22 09:23:12;;;;;;;3.35;1.10;;;;;;;14.25;100.00;99951.66;5055272;28;20033;-71
2023/09/22 09:25:54;;;;;;;2.80;1.05;;;;;;;14.33;100.00;99946.50;5055058;28;20029;-71
2023/09/22 09:28:20;;;;;;;2.50;0.77;;;;;;;14.40;100.00;99950.84;5055317;28;20035;-71
2023/09/22 09:30:48;;;;;;;2.80;1.02;;;;;;;14.35;100.00;99952.47;5055019;28;20024;-70
2023/09/22 09:33:14;;;;;;;4.22;1.30;;;;;;;14.36;100.00;99948.66;5055136;28;20028;-70
2023/09/22 09:35:41;;;;;;;4.68;0.98;;;;;;;14.34;100.00;99950.00;5053905;28;20087;-70
2023/09/22 09:38:09;;;;;;;2.30;1.10;;;;;;;14.38;100.00;99950.31;5054919;28;20029;-69
2023/09/22 09:40:37;;;;;;;3.00;1.08;;;;;;;14.41;100.00;99955.19;5036327;28;20025;-70
2023/09/22 09:43:08;;;;;;;4.22;1.25;;;;;;;14.44;100.00;99950.03;5054943;28;20021;-70
2023/09/22 09:45:35;;;;;;;2.55;1.00;;;;;;;14.55;100.00;99953.53;5054672;28;20035;-70
2023/09/22 09:48:03;;;;;;;3.90;1.10;;;;;;;14.66;100.00;99949.78;5054852;28;20056;-70
2023/09/22 09:50:33;;;;;;;1.88;0.80;;;;;;;14.78;100.00;99960.38;5068512;28;20041;-70
2023/09/22 09:53:06;;;;;;;2.03;0.90;;;;;;;14.87;100.00;99966.06;5074759;28;20028;-71
2023/09/22 09:55:35;;;;;;;1.77;0.90;;;;;;;14.90;100.00;99960.09;5054555;28;20020;-70
2023/09/22 09:58:02;;;;;;;3.10;1.30;;;;;;;14.97;100.00;99966.03;5072908;28;20036;-70
2023/09/22 10:00:28;;;;;;;1.73;0.90;;;;;;;15.06;100.00;99972.56;5056858;28;20087;-70
2023/09/22 10:02:58;;;;;;;3.67;1.00;;;;;;;15.12;100.00;99964.38;5071956;28;20060;-70
2023/09/22 10:05:23;;;;;;;2.80;0.98;;;;;;;15.14;100.00;99956.75;5074569;28;20080;-70
2023/09/22 10:07:51;;;;;;;1.48;1.00;;;;;;;15.17;100.00;99958.91;5074224;28;20135;-71
2023/09/22 10:10:20;;;;;;;3.78;0.85;;;;;;;15.21;100.00;99960.00;5073233;28;20031;-70
2023/09/22 10:12:47;;;;;;;1.90;0.98;;;;;;;15.27;100.00;99956.16;5057310;28;20033;-70
2023/09/22 10:15:12;;;;;;;2.15;0.80;;;;;;;15.28;100.00;99959.69;5053821;28;20037;-70
2023/09/22 10:17:38;;;;;;;2.05;0.80;;;;;;;15.31;100.00;99951.78;5070429;28;20032;-70
2023/09/22 10:20:11;;;;;;;4.95;1.00;;;;;;;15.35;100.00;99954.75;5074311;28;20448;-70
2023/09/22 10:22:40;;;;;;;3.53;0.90;;;;;;;15.55;100.00;99951.94;5073940;28;20028;-70
2023/09/22 10:25:11;;;;;;;3.67;1.20;;;;;;;15.66;100.00;99949.97;5074098;28;20497;-70
2023/09/22 10:28:04;;;;;;;2.47;1.10;;;;;;;15.78;100.00;99938.78;5055609;28;20127;-71
2023/09/22 10:30:45;;;;;;;2.95;1.00;;;;;;;15.76;100.00;99947.19;5049665;28;20091;-73
2023/09/22 10:33:16;;;;;;;2.35;1.30;;;;;;;15.82;100.00;99944.47;5059152;28;20029;-75
2023/09/22 10:35:42;;;;;;;2.10;1.10;;;;;;;15.89;100.00;99937.59;5059459;28;20041;-72
2023/09/22 10:38:10;;;;;;;2.53;1.17;;;;;;;15.95;100.00;99943.84;5075653;28;20051;-72
2023/09/22 10:40:35;;;;;;;3.80;1.20;;;;;;;15.96;100.00;99940.03;5042541;28;20028;-73
2023/09/22 10:43:04;;;;;;;1.55;0.98;;;;;;;15.93;100.00;99952.31;5064208;28;20025;-72
2023/09/22 10:45:29;;;;;;;1.95;1.10;;;;;;;15.99;100.00;99946.81;5071906;28;20483;-75
2023/09/22 10:47:59;;;;;;;2.83;0.90;;;;;;;16.02;100.00;99955.25;5055520;28;20039;-71
2023/09/22 10:50:32;;;;;;;2.15;0.82;;;;;;;16.11;100.00;99942.63;5073365;28;20460;-71
2023/09/22 10:53:00;;;;;;;2.63;1.05;;;;;;;16.13;100.00;99945.09;5040228;28;20040;-71
2023/09/22 10:55:30;;;;;;;1.80;1.00;;;;;;;16.02;100.00;99947.06;5053000;28;20373;-73
2023/09/22 10:57:57;;;;;;;2.47;1.13;;;;;;;15.94;100.00;99944.94;5055676;28;20047;-71
2023/09/22 11:00:23;;;;;;;2.15;1.10;;;;;;;15.88;100.00;99951.50;5051977;28;20041;-69
2023/09/22 11:02:49;;;;;;;2.10;1.10;;;;;;;15.73;100.00;99952.38;5052082;28;20056;-69
2023/09/22 11:05:16;;;;;;;2.35;0.88;;;;;;;15.68;100.00;99950.50;5053422;28;20083;-70
2023/09/22 11:07:42;;;;;;;3.88;1.20;;;;;;;15.60;100.00;99942.94;5066811;28;20101;-69
2023/09/22 11:10:08;;;;;;;3.05;1.00;;;;;;;15.68;100.00;99946.97;5068556;28;20123;-69
2023/09/22 11:12:33;;;;;;;2.05;1.00;;;;;;;15.58;100.00;99945.94;5035061;28;20480;-70
2023/09/22 11:15:00;;;;;;;4.18;1.10;;;;;;;15.66;100.00;99946.44;5053104;28;20103;-69
2023/09/22 11:17:40;;;;;;;3.97;1.15;;;;;;;15.68;100.00;99950.50;5065548;28;20476;-70
2023/09/22 11:20:12;;;;;;;3.08;1.30;;;;;;;15.55;100.00;99956.56;5057979;28;20029;-69